sensor_id;sensor_type;location;lat;lon;timestamp;pressure;altitude;pressure_sealevel;temperature;humidity
42945;BME280;28584;42.636;23.294;2023-04-24T00:01:35;160966.13;;;9.06;100.00
42945;BME280;28584;42.636;23.294;2023-04-24T00:04:02;160935.47;;;8.95;100.00
42945;BME280;28584;42.636;23.294;2023-04-24T00:06:29;160928.78;;;8.92;100.00
42945;BME280;28584;42.636;23.294;2023-04-24T00:08:59;160910.09;;;8.85;100.00
42945;BME280;28584;42.636;23.294;2023-04-24T00:11:26;160886.09;;;8.76;100.00
42945;BME280;28584;42.636;23.294;2023-04-24T00:13:51;160862.06;;;8.67;100.00
42945;BME280;28584;42.636;23.294;2023-04-24T00:16:16;160818.06;;;8.51;100.00
42945;BME280;28584;42.636;23.294;2023-04-24T00:18:42;160787.38;;;8.39;100.00
42945;BME280;28584;42.636;23.294;2023-04-24T00:21:07;160772.72;;;8.33;100.00
42945;BME280;28584;42.636;23.294;2023-04-24T00:23:32;160700.66;;;8.06;100.00
42945;BME280;28584;42.636;23.294;2023-04-24T00:25:58;160668.69;;;7.94;100.00
42945;BME280;28584;42.636;23.294;2023-04-24T00:28:23;160643.31;;;7.85;100.00
42945;BME280;28584;42.636;23.294;2023-04-24T00:30:49;160646.03;;;7.86;100.00
42945;BME280;28584;42.636;23.294;2023-04-24T00:33:14;160699.34;;;8.06;100.00
42945;BME280;28584;42.636;23.294;2023-04-24T00:35:40;160696.66;;;8.05;100.00
42945;BME280;28584;42.636;23.294;2023-04-24T00:38:05;160714.00;;;8.11;100.00
42945;BME280;28584;42.636;23.294;2023-04-24T00:40:31;160743.41;;;8.22;100.00
42945;BME280;28584;42.636;23.294;2023-04-24T00:42:56;160774.06;;;8.34;100.00
42945;BME280;28584;42.636;23.294;2023-04-24T00:45:22;160768.72;;;8.32;100.00
42945;BME280;28584;42.636;23.294;2023-04-24T00:47:48;160768.72;;;8.32;100.00
42945;BME280;28584;42.636;23.294;2023-04-24T00:50:15;160775.38;;;8.34;100.00
42945;BME280;28584;42.636;23.294;2023-04-24T00:52:40;160784.75;;;8.38;100.00
42945;BME280;28584;42.636;23.294;2023-04-24T00:55:06;160800.75;;;8.44;100.00
42945;BME280;28584;42.636;23.294;2023-04-24T00:57:32;160819.44;;;8.51;100.00
42945;BME280;28584;42.636;23.294;2023-04-24T00:59:58;160819.44;;;8.51;100.00
42945;BME280;28584;42.636;23.294;2023-04-24T01:02:23;160832.75;;;8.56;100.00
42945;BME280;28584;42.636;23.294;2023-04-24T01:04:50;160824.72;;;8.53;100.00
42945;BME280;28584;42.636;23.294;2023-04-24T01:07:19;160870.09;;;8.70;100.00
42945;BME280;28584;42.636;23.294;2023-04-24T01:09:47;160892.78;;;8.79;100.00
42945;BME280;28584;42.636;23.294;2023-04-24T01:12:14;160858.06;;;8.66;100.00
42945;BME280;28584;42.636;23.294;2023-04-24T01:14:40;160804.72;;;8.45;100.00
42945;BME280;28584;42.636;23.294;2023-04-24T01:17:06;160782.09;;;8.37;100.00
42945;BME280;28584;42.636;23.294;2023-04-24T01:19:32;160736.69;;;8.20;100.00
42945;BME280;28584;42.636;23.294;2023-04-24T01:21:58;160702.00;;;8.07;100.00
42945;BME280;28584;42.636;23.294;2023-04-24T01:24:27;160690.00;;;8.02;100.00
42945;BME280;28584;42.636;23.294;2023-04-24T01:26:53;160611.34;;;7.73;100.00
42945;BME280;28584;42.636;23.294;2023-04-24T01:29:19;160604.69;;;7.70;100.00
42945;BME280;28584;42.636;23.294;2023-04-24T01:31:44;160584.69;;;7.63;100.00
42945;BME280;28584;42.636;23.294;2023-04-24T01:34:10;160514.06;;;7.36;100.00
42945;BME280;28584;42.636;23.294;2023-04-24T01:36:36;160476.75;;;7.22;100.00
42945;BME280;28584;42.636;23.294;2023-04-24T01:39:02;160440.78;;;7.09;100.00
42945;BME280;28584;42.636;23.294;2023-04-24T01:41:29;160395.50;;;6.92;100.00
42945;BME280;28584;42.636;23.294;2023-04-24T01:43:55;160358.19;;;6.78;100.00
42945;BME280;28584;42.636;23.294;2023-04-24T01:46:21;160315.56;;;6.62;100.00
42945;BME280;28584;42.636;23.294;2023-04-24T01:48:47;160312.91;;;6.61;100.00
42945;BME280;28584;42.636;23.294;2023-04-24T01:51:13;160312.91;;;6.61;100.00
42945;BME280;28584;42.636;23.294;2023-04-24T01:53:38;160283.56;;;6.50;100.00
42945;BME280;28584;42.636;23.294;2023-04-24T01:56:04;160251.63;;;6.38;100.00
42945;BME280;28584;42.636;23.294;2023-04-24T01:58:32;160255.66;;;6.39;100.00
42945;BME280;28584;42.636;23.294;2023-04-24T02:00:57;160238.34;;;6.33;100.00
42945;BME280;28584;42.636;23.294;2023-04-24T02:03:25;160230.34;;;6.30;100.00
42945;BME280;28584;42.636;23.294;2023-04-24T02:05:50;160218.34;;;6.25;100.00
42945;BME280;28584;42.636;23.294;2023-04-24T02:08:16;160202.38;;;6.19;100.00
42945;BME280;28584;42.636;23.294;2023-04-24T02:10:41;160191.72;;;6.15;100.00
42945;BME280;28584;42.636;23.294;2023-04-24T02:13:06;160195.72;;;6.17;100.00
42945;BME280;28584;42.636;23.294;2023-04-24T02:15:32;160217.00;;;6.25;100.00
42945;BME280;28584;42.636;23.294;2023-04-24T02:17:57;160230.34;;;6.30;100.00
42945;BME280;28584;42.636;23.294;2023-04-24T02:20:23;160211.72;;;6.23;100.00
42945;BME280;28584;42.636;23.294;2023-04-24T02:22:48;160230.34;;;6.30;100.00
42945;BME280;28584;42.636;23.294;2023-04-24T02:25:13;160226.34;;;6.28;100.00
42945;BME280;28584;42.636;23.294;2023-04-24T02:27:39;160254.28;;;6.39;100.00
42945;BME280;28584;42.636;23.294;2023-04-24T02:30:05;160266.28;;;6.43;100.00
42945;BME280;28584;42.636;23.294;2023-04-24T02:32:31;160266.28;;;6.43;100.00
42945;BME280;28584;42.636;23.294;2023-04-24T02:34:56;160257.00;;;6.40;100.00
42945;BME280;28584;42.636;23.294;2023-04-24T02:37:21;160234.34;;;6.31;100.00
42945;BME280;28584;42.636;23.294;2023-04-24T02:39:47;160214.38;;;6.24;100.00
42945;BME280;28584;42.636;23.294;2023-04-24T02:42:12;160214.38;;;6.24;100.00
42945;BME280;28584;42.636;23.294;2023-04-24T02:44:37;160291.56;;;6.53;100.00
42945;BME280;28584;42.636;23.294;2023-04-24T02:47:03;160263.63;;;6.42;100.00
42945;BME280;28584;42.636;23.294;2023-04-24T02:49:29;160276.94;;;6.47;100.00
42945;BME280;28584;42.636;23.294;2023-04-24T02:51:54;160271.63;;;6.45;100.00
42945;BME280;28584;42.636;23.294;2023-04-24T02:54:19;160243.66;;;6.35;100.00
42945;BME280;28584;42.636;23.294;2023-04-24T02:56:45;160223.66;;;6.27;100.00
42945;BME280;28584;42.636;23.294;2023-04-24T02:59:10;160206.38;;;6.21;100.00
42945;BME280;28584;42.636;23.294;2023-04-24T03:01:36;160190.38;;;6.15;100.00
42945;BME280;28584;42.636;23.294;2023-04-24T03:04:01;160165.09;;;6.05;100.00
42945;BME280;28584;42.636;23.294;2023-04-24T03:06:27;160165.09;;;6.05;100.00
42945;BME280;28584;42.636;23.294;2023-04-24T03:08:52;160166.44;;;6.06;100.00
42945;BME280;28584;42.636;23.294;2023-04-24T03:11:18;160163.75;;;6.05;100.00
42945;BME280;28584;42.636;23.294;2023-04-24T03:13:43;160162.44;;;6.04;100.00
42945;BME280;28584;42.636;23.294;2023-04-24T03:16:09;160191.72;;;6.15;100.00
42945;BME280;28584;42.636;23.294;2023-04-24T03:18:34;160190.38;;;6.15;100.00
42945;BME280;28584;42.636;23.294;2023-04-24T03:21:00;160166.44;;;6.06;100.00
42945;BME280;28584;42.636;23.294;2023-04-24T03:23:26;160153.09;;;6.01;100.00
42945;BME280;28584;42.636;23.294;2023-04-24T03:25:51;160161.09;;;6.04;100.00
42945;BME280;28584;42.636;23.294;2023-04-24T03:28:17;160170.44;;;6.07;100.00
42945;BME280;28584;42.636;23.294;2023-04-24T03:30:42;160173.09;;;6.08;100.00
42945;BME280;28584;42.636;23.294;2023-04-24T03:33:07;160178.44;;;6.10;100.00
42945;BME280;28584;42.636;23.294;2023-04-24T03:35:33;160190.38;;;6.15;100.00
42945;BME280;28584;42.636;23.294;2023-04-24T03:37:58;160201.03;;;6.19;100.00
42945;BME280;28584;42.636;23.294;2023-04-24T03:40:24;160210.38;;;6.22;100.00
42945;BME280;28584;42.636;23.294;2023-04-24T03:42:49;160217.00;;;6.25;100.00
42945;BME280;28584;42.636;23.294;2023-04-24T03:45:14;160230.34;;;6.30;100.00
42945;BME280;28584;42.636;23.294;2023-04-24T03:47:40;160249.00;;;6.37;100.00
42945;BME280;28584;42.636;23.294;2023-04-24T03:50:05;160278.28;;;6.48;100.00
42945;BME280;28584;42.636;23.294;2023-04-24T03:52:31;160316.91;;;6.62;100.00
42945;BME280;28584;42.636;23.294;2023-04-24T03:54:56;160358.19;;;6.78;100.00
42945;BME280;28584;42.636;23.294;2023-04-24T03:57:21;160400.78;;;6.94;100.00
42945;BME280;28584;42.636;23.294;2023-04-24T03:59:47;160467.41;;;7.19;100.00
42945;BME280;28584;42.636;23.294;2023-04-24T04:02:12;160508.72;;;7.34;100.00
42945;BME280;28584;42.636;23.294;2023-04-24T04:04:37;160559.38;;;7.53;100.00
42945;BME280;28584;42.636;23.294;2023-04-24T04:07:03;160595.34;;;7.67;100.00
42945;BME280;28584;42.636;23.294;2023-04-24T04:09:29;160635.34;;;7.82;100.00
42945;BME280;28584;42.636;23.294;2023-04-24T04:11:54;160707.31;;;8.09;100.00
42945;BME280;28584;42.636;23.294;2023-04-24T04:14:21;160737.97;;;8.20;100.00
42945;BME280;28584;42.636;23.294;2023-04-24T04:16:46;160736.69;;;8.20;100.00
42945;BME280;28584;42.636;23.294;2023-04-24T04:19:11;160804.72;;;8.45;100.00
42945;BME280;28584;42.636;23.294;2023-04-24T04:21:37;160822.09;;;8.52;100.00
42945;BME280;28584;42.636;23.294;2023-04-24T04:24:02;160786.03;;;8.38;100.00
42945;BME280;28584;42.636;23.294;2023-04-24T04:26:27;160840.75;;;8.59;100.00
42945;BME280;28584;42.636;23.294;2023-04-24T04:28:53;160872.75;;;8.71;100.00
42945;BME280;28584;42.636;23.294;2023-04-24T04:31:21;160924.75;;;8.91;100.00
42945;BME280;28584;42.636;23.294;2023-04-24T04:33:48;160908.78;;;8.85;100.00
42945;BME280;28584;42.636;23.294;2023-04-24T04:36:13;160911.44;;;8.86;100.00
42945;BME280;28584;42.636;23.294;2023-04-24T04:38:39;160931.47;;;8.93;100.00
42945;BME280;28584;42.636;23.294;2023-04-24T04:41:05;160984.81;;;9.13;100.00
42945;BME280;28584;42.636;23.294;2023-04-24T04:43:31;161046.22;;;9.36;100.00
42945;BME280;28584;42.636;23.294;2023-04-24T04:45:57;160939.50;;;8.96;100.00
42945;BME280;28584;42.636;23.294;2023-04-24T04:48:23;160812.72;;;8.48;100.00
42945;BME280;28584;42.636;23.294;2023-04-24T04:50:48;160796.75;;;8.43;100.00
42945;BME280;28584;42.636;23.294;2023-04-24T04:53:13;160788.75;;;8.39;100.00
42945;BME280;28584;42.636;23.294;2023-04-24T04:55:39;160790.03;;;8.40;100.00
42945;BME280;28584;42.636;23.294;2023-04-24T04:58:04;160782.09;;;8.37;100.00
42945;BME280;28584;42.636;23.294;2023-04-24T05:00:30;160771.38;;;8.33;100.00
42945;BME280;28584;42.636;23.294;2023-04-24T05:03:00;160808.72;;;8.47;100.00
42945;BME280;28584;42.636;23.294;2023-04-24T05:05:25;160806.06;;;8.46;100.00
42945;BME280;28584;42.636;23.294;2023-04-24T05:07:51;160810.06;;;8.48;100.00
42945;BME280;28584;42.636;23.294;2023-04-24T05:10:16;160859.41;;;8.66;100.00
42945;BME280;28584;42.636;23.294;2023-04-24T05:12:41;160888.75;;;8.77;100.00
42945;BME280;28584;42.636;23.294;2023-04-24T05:15:07;160918.09;;;8.88;100.00
42945;BME280;28584;42.636;23.294;2023-04-24T05:17:32;160947.44;;;8.99;100.00
42945;BME280;28584;42.636;23.294;2023-04-24T05:19:58;160903.44;;;8.83;100.00
42945;BME280;28584;42.636;23.294;2023-04-24T05:22:23;160942.16;;;8.97;100.00
42945;BME280;28584;42.636;23.294;2023-04-24T05:24:49;160958.16;;;9.03;100.00
42945;BME280;28584;42.636;23.294;2023-04-24T05:27:14;160968.84;;;9.07;100.00
42945;BME280;28584;42.636;23.294;2023-04-24T05:29:40;160940.78;;;8.97;100.00
42945;BME280;28584;42.636;23.294;2023-04-24T05:32:05;161000.84;;;9.19;100.00
42945;BME280;28584;42.636;23.294;2023-04-24T05:34:31;161128.97;;;9.67;100.00
42945;BME280;28584;42.636;23.294;2023-04-24T05:36:57;161123.66;;;9.65;100.00
42945;BME280;28584;42.636;23.294;2023-04-24T05:39:22;161235.88;;;10.07;100.00
42945;BME280;28584;42.636;23.294;2023-04-24T05:41:50;161499.06;;;11.06;100.00
42945;BME280;28584;42.636;23.294;2023-04-24T05:44:15;161765.16;;;12.06;100.00
42945;BME280;28584;42.636;23.294;2023-04-24T05:46:40;162014.06;;;12.99;100.00
42945;BME280;28584;42.636;23.294;2023-04-24T05:49:06;162233.59;;;13.81;100.00
42945;BME280;28584;42.636;23.294;2023-04-24T05:51:31;162456.03;;;14.64;100.00
42945;BME280;28584;42.636;23.294;2023-04-24T05:53:57;162635.69;;;15.31;91.88
42945;BME280;28584;42.636;23.294;2023-04-24T05:56:23;162745.69;;;15.72;72.05
42945;BME280;28584;42.636;23.294;2023-04-24T05:58:48;162775.19;;;15.83;68.33
42945;BME280;28584;42.636;23.294;2023-04-24T06:01:13;162751.03;;;15.74;67.67
42945;BME280;28584;42.636;23.294;2023-04-24T06:03:42;162464.06;;;14.67;73.16
42945;BME280;28584;42.636;23.294;2023-04-24T06:06:08;162579.38;;;15.10;69.71
42945;BME280;28584;42.636;23.294;2023-04-24T06:08:34;162180.06;;;13.61;77.87
42945;BME280;28584;42.636;23.294;2023-04-24T06:10:59;162279.13;;;13.98;80.19
42945;BME280;28584;42.636;23.294;2023-04-24T06:13:25;162268.44;;;13.94;80.26
42945;BME280;28584;42.636;23.294;2023-04-24T06:15:50;162011.31;;;12.98;93.51
42945;BME280;28584;42.636;23.294;2023-04-24T06:18:16;162011.31;;;12.98;93.27
42945;BME280;28584;42.636;23.294;2023-04-24T06:20:42;161947.09;;;12.74;100.00
42945;BME280;28584;42.636;23.294;2023-04-24T06:23:08;162062.25;;;13.17;100.00
42945;BME280;28584;42.636;23.294;2023-04-24T06:25:33;162295.22;;;14.04;84.56
42945;BME280;28584;42.636;23.294;2023-04-24T06:27:59;162560.59;;;15.03;75.94
42945;BME280;28584;42.636;23.294;2023-04-24T06:30:25;162799.28;;;15.92;69.74
42945;BME280;28584;42.636;23.294;2023-04-24T06:32:50;162890.53;;;16.26;63.32
42945;BME280;28584;42.636;23.294;2023-04-24T06:35:16;163129.47;;;17.16;60.18
42945;BME280;28584;42.636;23.294;2023-04-24T06:37:42;163292.00;;;17.76;57.67
42945;BME280;28584;42.636;23.294;2023-04-24T06:40:08;162836.91;;;16.06;58.76
42945;BME280;28584;42.636;23.294;2023-04-24T06:42:34;162268.44;;;13.94;62.61
42945;BME280;28584;42.636;23.294;2023-04-24T06:45:00;162308.66;;;14.09;67.06
42945;BME280;28584;42.636;23.294;2023-04-24T06:47:25;162419.88;;;14.51;65.47
42945;BME280;28584;42.636;23.294;2023-04-24T06:49:51;162548.53;;;14.99;62.71
42945;BME280;28584;42.636;23.294;2023-04-24T06:52:17;162210.88;;;13.72;65.51
42945;BME280;28584;42.636;23.294;2023-04-24T06:54:43;162107.75;;;13.34;70.61
42945;BME280;28584;42.636;23.294;2023-04-24T06:57:09;162527.09;;;14.91;66.29
42945;BME280;28584;42.636;23.294;2023-04-24T06:59:35;162973.78;;;16.58;60.34
42945;BME280;28584;42.636;23.294;2023-04-24T07:02:01;163333.66;;;17.92;55.84
42945;BME280;28584;42.636;23.294;2023-04-24T07:04:26;163669.63;;;19.17;51.80
42945;BME280;28584;42.636;23.294;2023-04-24T07:06:52;163014.06;;;16.73;52.47
42945;BME280;28584;42.636;23.294;2023-04-24T07:09:21;163442.44;;;18.32;51.91
42945;BME280;28584;42.636;23.294;2023-04-24T07:11:47;163160.38;;;17.27;51.00
42945;BME280;28584;42.636;23.294;2023-04-24T07:14:13;163193.94;;;17.40;52.66
42945;BME280;28584;42.636;23.294;2023-04-24T07:16:38;163075.78;;;16.96;52.27
42945;BME280;28584;42.636;23.294;2023-04-24T07:19:04;163113.34;;;17.10;52.60
42945;BME280;28584;42.636;23.294;2023-04-24T07:21:29;163062.38;;;16.91;52.27
42945;BME280;28584;42.636;23.294;2023-04-24T07:23:57;162894.56;;;16.28;52.69
42945;BME280;28584;42.636;23.294;2023-04-24T07:26:23;162785.91;;;15.87;54.93
42945;BME280;28584;42.636;23.294;2023-04-24T07:28:48;162440.00;;;14.58;57.86
42945;BME280;28584;42.636;23.294;2023-04-24T07:31:14;162592.75;;;15.15;57.80
42945;BME280;28584;42.636;23.294;2023-04-24T07:33:39;162807.34;;;15.95;55.79
42945;BME280;28584;42.636;23.294;2023-04-24T07:36:05;163042.22;;;16.83;55.21
42945;BME280;28584;42.636;23.294;2023-04-24T07:38:30;163368.59;;;18.05;52.37
42945;BME280;28584;42.636;23.294;2023-04-24T07:40:56;163594.38;;;18.89;49.01
42945;BME280;28584;42.636;23.294;2023-04-24T07:43:21;163823.00;;;19.74;47.24
42945;BME280;28584;42.636;23.294;2023-04-24T07:45:49;163844.50;;;19.82;47.19
42945;BME280;28584;42.636;23.294;2023-04-24T07:48:14;163603.81;;;18.92;49.05
42945;BME280;28584;42.636;23.294;2023-04-24T07:50:41;163836.44;;;19.79;46.52
42945;BME280;28584;42.636;23.294;2023-04-24T07:53:07;163995.22;;;20.38;45.28
42945;BME280;28584;42.636;23.294;2023-04-24T07:55:32;164005.97;;;20.42;45.07
42945;BME280;28584;42.636;23.294;2023-04-24T07:57:58;164042.34;;;20.56;44.60
42945;BME280;28584;42.636;23.294;2023-04-24T08:00:23;163680.38;;;19.21;45.73
42945;BME280;28584;42.636;23.294;2023-04-24T08:02:48;163332.28;;;17.91;48.63
42945;BME280;28584;42.636;23.294;2023-04-24T08:05:14;163798.78;;;19.65;47.31
42945;BME280;28584;42.636;23.294;2023-04-24T08:07:39;163919.81;;;20.10;45.71
42945;BME280;28584;42.636;23.294;2023-04-24T08:10:09;163836.44;;;19.79;44.94
42945;BME280;28584;42.636;23.294;2023-04-24T08:12:35;163997.91;;;20.39;45.77
42945;BME280;28584;42.636;23.294;2023-04-24T08:15:00;164110.97;;;20.81;44.78
42945;BME280;28584;42.636;23.294;2023-04-24T08:17:25;164345.28;;;21.69;42.84
42945;BME280;28584;42.636;23.294;2023-04-24T08:19:51;164393.78;;;21.87;42.61
42945;BME280;28584;42.636;23.294;2023-04-24T08:22:18;164110.97;;;20.81;43.52
42945;BME280;28584;42.636;23.294;2023-04-24T08:24:44;163242.31;;;17.58;48.39
42945;BME280;28584;42.636;23.294;2023-04-24T08:27:09;163382.00;;;18.10;49.50
42945;BME280;28584;42.636;23.294;2023-04-24T08:29:36;163645.47;;;19.08;47.51
42945;BME280;28584;42.636;23.294;2023-04-24T08:32:01;163796.09;;;19.64;46.02
42945;BME280;28584;42.636;23.294;2023-04-24T08:34:27;163925.28;;;20.12;45.80
42945;BME280;28584;42.636;23.294;2023-04-24T08:36:52;164113.66;;;20.82;44.02
42945;BME280;28584;42.636;23.294;2023-04-24T08:39:18;164414.00;;;21.94;42.50
42945;BME280;28584;42.636;23.294;2023-04-24T08:41:43;164664.63;;;22.87;40.63
42945;BME280;28584;42.636;23.294;2023-04-24T08:44:11;164559.53;;;22.48;40.79
42945;BME280;28584;42.636;23.294;2023-04-24T08:46:38;164590.53;;;22.60;40.81
42945;BME280;28584;42.636;23.294;2023-04-24T08:49:04;164703.72;;;23.02;39.45
42945;BME280;28584;42.636;23.294;2023-04-24T08:51:31;164659.25;;;22.85;39.61
42945;BME280;28584;42.636;23.294;2023-04-24T08:53:57;164803.53;;;23.39;39.71
42945;BME280;28584;42.636;23.294;2023-04-24T08:56:23;164923.50;;;23.83;39.08
42945;BME280;28584;42.636;23.294;2023-04-24T08:58:50;164810.25;;;23.41;38.69
42945;BME280;28584;42.636;23.294;2023-04-24T09:01:18;164552.75;;;22.46;40.39
42945;BME280;28584;42.636;23.294;2023-04-24T09:03:44;164506.94;;;22.29;39.94
42945;BME280;28584;42.636;23.294;2023-04-24T09:06:11;164377.63;;;21.81;42.24
42945;BME280;28584;42.636;23.294;2023-04-24T09:08:38;164229.44;;;21.25;41.78
42945;BME280;28584;42.636;23.294;2023-04-24T09:11:06;164384.34;;;21.83;41.94
42945;BME280;28584;42.636;23.294;2023-04-24T09:13:31;164405.91;;;21.91;40.67
42945;BME280;28584;42.636;23.294;2023-04-24T09:15:57;164481.34;;;22.19;41.50
42945;BME280;28584;42.636;23.294;2023-04-24T09:18:23;164488.06;;;22.22;40.58
42945;BME280;28584;42.636;23.294;2023-04-24T09:21:07;164423.41;;;21.98;41.06
42945;BME280;28584;42.636;23.294;2023-04-24T09:23:32;164396.47;;;21.88;41.49
42945;BME280;28584;42.636;23.294;2023-04-24T09:25:59;164245.63;;;21.31;42.43
42945;BME280;28584;42.636;23.294;2023-04-24T09:28:35;164358.75;;;21.74;42.07
42945;BME280;28584;42.636;23.294;2023-04-24T09:31:12;164199.84;;;21.14;41.53
42945;BME280;28584;42.636;23.294;2023-04-24T09:33:39;164205.25;;;21.16;41.94
42945;BME280;28584;42.636;23.294;2023-04-24T09:36:05;164366.84;;;21.77;41.95
42945;BME280;28584;42.636;23.294;2023-04-24T09:38:35;164458.44;;;22.11;41.18
42945;BME280;28584;42.636;23.294;2023-04-24T09:41:04;164455.78;;;22.10;41.09
42945;BME280;28584;42.636;23.294;2023-04-24T09:43:30;164585.09;;;22.58;40.75
42945;BME280;28584;42.636;23.294;2023-04-24T09:45:56;164719.91;;;23.08;40.30
42945;BME280;28584;42.636;23.294;2023-04-24T09:48:32;164454.41;;;22.09;40.77
42945;BME280;28584;42.636;23.294;2023-04-24T09:50:59;164167.56;;;21.02;42.00
42945;BME280;28584;42.636;23.294;2023-04-24T09:53:26;164154.06;;;20.97;43.11
42945;BME280;28584;42.636;23.294;2023-04-24T09:55:52;164226.78;;;21.24;42.12
42945;BME280;28584;42.636;23.294;2023-04-24T09:58:24;164294.06;;;21.49;42.10
42945;BME280;28584;42.636;23.294;2023-04-24T10:00:49;164283.31;;;21.45;42.26
42945;BME280;28584;42.636;23.294;2023-04-24T10:03:18;164252.34;;;21.34;43.03
42945;BME280;28584;42.636;23.294;2023-04-24T10:05:46;164316.97;;;21.58;42.05
42945;BME280;28584;42.636;23.294;2023-04-24T10:08:12;164141.94;;;20.93;43.24
42945;BME280;28584;42.636;23.294;2023-04-24T10:10:43;164175.59;;;21.05;42.49
42945;BME280;28584;42.636;23.294;2023-04-24T10:13:10;164323.69;;;21.60;41.70
42945;BME280;28584;42.636;23.294;2023-04-24T10:15:36;164485.41;;;22.21;40.29
42945;BME280;28584;42.636;23.294;2023-04-24T10:18:04;164493.47;;;22.24;40.78
42945;BME280;28584;42.636;23.294;2023-04-24T10:20:30;164330.47;;;21.63;41.35
42945;BME280;28584;42.636;23.294;2023-04-24T10:22:57;164383.03;;;21.83;40.88
42945;BME280;28584;42.636;23.294;2023-04-24T10:25:25;164457.09;;;22.10;41.06
42945;BME280;28584;42.636;23.294;2023-04-24T10:27:52;164444.94;;;22.06;39.82
42945;BME280;28584;42.636;23.294;2023-04-24T10:30:19;164248.28;;;21.32;40.56
42945;BME280;28584;42.636;23.294;2023-04-24T10:32:45;164426.09;;;21.99;39.90
42945;BME280;28584;42.636;23.294;2023-04-24T10:35:13;164314.28;;;21.57;41.13
42945;BME280;28584;42.636;23.294;2023-04-24T10:37:44;164356.09;;;21.73;41.48
42945;BME280;28584;42.636;23.294;2023-04-24T10:40:11;164385.72;;;21.84;39.69
42945;BME280;28584;42.636;23.294;2023-04-24T10:42:40;164396.47;;;21.88;39.50
42945;BME280;28584;42.636;23.294;2023-04-24T10:45:16;164211.97;;;21.19;40.64
42945;BME280;28584;42.636;23.294;2023-04-24T10:47:42;164342.53;;;21.67;39.88
42945;BME280;28584;42.636;23.294;2023-04-24T10:50:12;164412.66;;;21.94;39.25
42945;BME280;28584;42.636;23.294;2023-04-24T10:52:48;164571.66;;;22.53;38.59
42945;BME280;28584;42.636;23.294;2023-04-24T10:55:15;164556.78;;;22.47;38.05
42945;BME280;28584;42.636;23.294;2023-04-24T10:58:03;164692.94;;;22.98;37.41
42945;BME280;28584;42.636;23.294;2023-04-24T11:00:30;164713.19;;;23.05;36.72
42945;BME280;28584;42.636;23.294;2023-04-24T11:02:55;164593.19;;;22.61;37.30
42945;BME280;28584;42.636;23.294;2023-04-24T11:05:22;164556.78;;;22.47;37.11
42945;BME280;28584;42.636;23.294;2023-04-24T11:08:15;164360.13;;;21.74;38.35
42945;BME280;28584;42.636;23.294;2023-04-24T11:10:46;164418.00;;;21.96;37.79
42945;BME280;28584;42.636;23.294;2023-04-24T11:13:16;164321.00;;;21.59;38.14
42945;BME280;28584;42.636;23.294;2023-04-24T11:15:42;164216.00;;;21.20;39.06
42945;BME280;28584;42.636;23.294;2023-04-24T11:18:14;164000.63;;;20.40;40.49
42945;BME280;28584;42.636;23.294;2023-04-24T11:20:44;163970.97;;;20.29;41.83
42945;BME280;28584;42.636;23.294;2023-04-24T11:23:12;163874.09;;;19.93;45.72
42945;BME280;28584;42.636;23.294;2023-04-24T11:25:37;163519.09;;;18.61;50.40
42945;BME280;28584;42.636;23.294;2023-04-24T11:28:04;163302.75;;;17.80;58.41
42945;BME280;28584;42.636;23.294;2023-04-24T11:30:32;163298.72;;;17.79;59.19
42945;BME280;28584;42.636;23.294;2023-04-24T11:33:03;163255.75;;;17.63;65.91
42945;BME280;28584;42.636;23.294;2023-04-24T11:35:29;163118.75;;;17.12;96.70
42945;BME280;28584;42.636;23.294;2023-04-24T11:37:55;162920.03;;;16.37;96.44
42945;BME280;28584;42.636;23.294;2023-04-24T11:40:22;162851.66;;;16.12;100.00
42945;BME280;28584;42.636;23.294;2023-04-24T11:42:49;162858.34;;;16.14;100.00
42945;BME280;28584;42.636;23.294;2023-04-24T11:45:17;162792.59;;;15.90;100.00
42945;BME280;28584;42.636;23.294;2023-04-24T11:47:43;162832.88;;;16.05;100.00
42945;BME280;28584;42.636;23.294;2023-04-24T11:50:16;162922.75;;;16.38;100.00
42945;BME280;28584;42.636;23.294;2023-04-24T11:52:44;162961.69;;;16.53;100.00
42945;BME280;28584;42.636;23.294;2023-04-24T11:57:46;162772.53;;;15.82;100.00
42945;BME280;28584;42.636;23.294;2023-04-24T12:00:19;162839.56;;;16.07;100.00
42945;BME280;28584;42.636;23.294;2023-04-24T12:02:46;163019.41;;;16.75;100.00
42945;BME280;28584;42.636;23.294;2023-04-24T12:05:27;163187.22;;;17.37;100.00
42945;BME280;28584;42.636;23.294;2023-04-24T12:07:53;163371.25;;;18.06;100.00
42945;BME280;28584;42.636;23.294;2023-04-24T12:10:27;163554.06;;;18.74;99.68
42945;BME280;28584;42.636;23.294;2023-04-24T12:12:53;163693.91;;;19.26;77.56
42945;BME280;28584;42.636;23.294;2023-04-24T12:15:20;163769.19;;;19.54;65.70
42945;BME280;28584;42.636;23.294;2023-04-24T12:17:45;163728.84;;;19.39;60.07
42945;BME280;28584;42.636;23.294;2023-04-24T12:20:12;163777.28;;;19.57;57.94
42945;BME280;28584;42.636;23.294;2023-04-24T12:25:16;163610.50;;;18.95;58.19
42945;BME280;28584;42.636;23.294;2023-04-24T12:27:42;163532.53;;;18.66;61.87
42945;BME280;28584;42.636;23.294;2023-04-24T12:30:13;163466.72;;;18.41;60.72
42945;BME280;28584;42.636;23.294;2023-04-24T12:32:58;163591.69;;;18.88;57.17
42945;BME280;28584;42.636;23.294;2023-04-24T12:35:25;163704.66;;;19.30;58.13
42945;BME280;28584;42.636;23.294;2023-04-24T12:37:51;163825.69;;;19.75;55.49
42945;BME280;28584;42.636;23.294;2023-04-24T12:40:18;163895.59;;;20.01;51.58
42945;BME280;28584;42.636;23.294;2023-04-24T12:42:45;164003.28;;;20.41;51.23